Latest Weather Observations for Scottsdale

IDT60801

Issued at 2:02 pm EDT Sunday 21 December 2014 (issued every 30 minutes, with the page automatically refreshed every 10 minutes)

About weather observations | Map of weather stations | Latest weather observations for TAS | Other Formats
Station Details ID: 091219 Name: SCOTTSDALE (WEST MINSTONE ROAD) Lat: -41.17 Lon: 147.49 Height: 197.5 m
Data from the previous 72 hours. | See also: Recent months at Scottsdale
Date/Time
EDT
Temp
°C
App
Temp
°C
Dew
Point
Rel
Hum
%
Delta-T
°C
Wind Press
QNH
hPa
Press
MSL
hPa
Rain
since 9 am
mm
Dir
 
Spd
km/h
Gust
km/h
Spd
kts
Gust
kts
21/02:00pm 20.2 16.6 9.8 51 5.6 NW 19 32 10 17 1014.1 - 0.0
21/01:30pm 20.0 15.5 8.6 47 6.0 N 22 32 12 17 1014.1 - 0.0
21/01:00pm 20.3 16.9 10.4 53 5.4 NNW 19 28 10 15 1014.3 - 0.0
21/12:30pm 20.0 17.6 11.4 57 4.8 N 15 26 8 14 1014.4 - 0.0
21/12:00pm 19.7 17.4 11.6 59 4.5 NNW 15 22 8 12 1014.8 1014.6 0.0
21/11:30am 19.7 17.6 11.0 57 4.8 NNW 13 24 7 13 1014.7 - 0.0
21/11:00am 19.8 17.7 11.1 57 4.8 NW 13 19 7 10 1014.7 - 0.0
21/10:30am 18.6 16.6 10.3 58 4.5 NNW 11 20 6 11 1015.0 - 0.0
21/10:00am 18.1 16.8 9.9 58 4.4 W 7 15 4 8 1015.0 - 0.0
21/09:30am 18.2 17.0 10.2 59 4.3 NW 7 15 4 8 1015.1 - 0.0
21/09:00am 17.0 15.9 10.7 66 3.4 N 7 11 4 6 1015.1 1014.9 0.0
21/08:30am 16.7 15.9 11.0 69 3.1 NE 6 13 3 7 1015.1 - 0.0
21/08:00am 16.1 15.3 11.1 72 2.7 E 6 11 3 6 1015.0 - 0.0
21/07:30am 15.5 14.1 11.0 74 2.4 ESE 9 11 5 6 1015.0 - 0.0
21/07:00am 14.1 12.9 11.5 84 1.4 SSE 9 11 5 6 1015.3 - 0.0
21/06:30am 13.1 11.8 11.2 88 1.0 S 9 11 5 6 1015.5 - 0.0
21/06:00am 11.1 9.4 9.9 92 0.6 SSE 9 11 5 6 1014.9 1014.7 0.0
21/05:30am 11.0 10.6 9.8 92 0.6 WSW 2 6 1 3 1014.7 - 0.0
21/05:00am 12.5 11.5 10.4 87 1.1 WNW 6 7 3 4 1014.4 - 0.0
21/04:30am 13.0 12.1 10.5 85 1.3 ENE 6 7 3 4 1014.2 - 0.0
21/04:00am 13.4 12.3 10.6 83 1.5 ENE 7 9 4 5 1014.3 - 0.0
21/03:30am 13.7 11.8 10.5 81 1.7 E 11 15 6 8 1014.2 - 0.0
21/03:00am 13.8 11.5 10.4 80 1.8 E 13 17 7 9 1014.5 1014.3 0.0
21/02:30am 13.8 12.0 10.8 82 1.6 E 11 15 6 8 1014.6 - 0.0
21/02:00am 13.9 11.7 10.7 81 1.7 E 13 15 7 8 1014.9 - 0.0
21/01:30am 13.6 11.8 11.0 84 1.4 E 11 13 6 7 1015.2 - 0.0
21/01:00am 13.1 11.8 11.2 88 1.0 NNE 9 11 5 6 1015.5 - 0.0
21/12:30am 13.0 12.0 11.1 88 1.0 ENE 7 9 4 5 1015.4 - 0.0
21/12:00am 12.9 11.1 11.0 88 1.0 ENE 11 13 6 7 1015.3 1015.1 0.0
 
Date/Time
EDT
Temp
°C
App
Temp
°C
Dew
Point
Rel
Hum
%
Delta-T
°C
Wind Press
QNH
hPa
Press
MSL
hPa
Rain
since 9 am
mm
Dir
 
Spd
km/h
Gust
km/h
Spd
kts
Gust
kts
20/11:30pm 13.3 11.2 11.2 87 1.1 ENE 13 17 7 9 1015.5 - 0.0
20/11:00pm 12.4 10.5 10.5 88 1.0 NE 11 15 6 8 1015.3 - 0.0
20/10:30pm 13.9 12.6 11.3 84 1.4 ENE 9 11 5 6 1015.1 - 0.0
20/10:00pm 14.7 11.9 11.2 79 1.9 ENE 17 20 9 11 1014.8 - 0.0
20/09:30pm 14.9 11.7 11.2 78 2.0 ENE 19 26 10 14 1014.6 - 0.0
20/09:00pm 15.5 12.2 10.8 73 2.5 ENE 19 22 10 12 1014.0 1013.8 0.0
20/08:30pm 16.5 13.2 9.5 63 3.7 NNE 17 19 9 10 1013.6 - 0.0
20/08:00pm 18.6 15.8 8.7 52 5.2 NW 13 20 7 11 1013.0 - 0.0
20/07:30pm 19.5 16.7 8.5 49 5.8 NW 13 20 7 11 1012.4 - 0.0
20/07:00pm 20.3 16.6 8.1 45 6.4 NW 17 28 9 15 1012.0 - 0.0
20/06:30pm 21.1 16.5 8.0 43 6.9 WNW 22 33 12 18 1011.6 - 0.0
20/06:00pm 21.1 16.8 7.7 42 7.0 WNW 20 35 11 19 1011.3 1011.1 0.0
20/05:30pm 21.2 16.5 9.3 46 6.4 NW 24 39 13 21 1011.2 - 0.0
20/05:00pm 21.7 17.4 9.3 45 6.7 NW 22 37 12 20 1011.3 - 0.0
20/04:30pm 21.1 15.9 8.7 45 6.6 NW 26 39 14 21 1011.3 - 0.0
20/04:00pm 23.1 19.6 8.8 40 7.7 WNW 17 28 9 15 1011.4 - 0.0
20/03:30pm 21.8 18.5 9.4 45 6.7 WNW 17 28 9 15 1011.6 - 0.0
20/03:00pm 21.5 17.7 9.7 47 6.4 WNW 20 33 11 18 1011.8 1011.6 0.0
20/02:30pm 20.7 17.4 10.9 53 5.4 WNW 19 28 10 15 1011.9 - 0.0
20/02:00pm 21.0 17.9 10.4 50 5.8 W 17 28 9 15 1012.0 - 0.0
20/01:30pm 20.4 17.3 12.3 59 4.6 WNW 20 32 11 17 1012.2 - 0.0
20/01:00pm 20.7 17.7 11.8 56 5.0 WNW 19 30 10 16 1012.4 - 0.0
20/12:30pm 19.5 16.0 11.0 58 4.7 WNW 20 33 11 18 1012.7 - 0.0
20/12:00pm 19.7 16.7 11.8 60 4.4 NW 19 33 10 18 1012.5 1012.3 0.0
20/11:30am 19.0 16.4 12.0 64 3.9 NW 17 28 9 15 1012.9 - 0.0
20/11:00am 18.4 16.3 12.5 68 3.3 WNW 15 20 8 11 1013.3 - 0.0
20/10:30am 16.8 15.7 11.9 73 2.7 WNW 9 15 5 8 1013.5 - 0.0
20/10:00am 15.5 14.2 11.2 75 2.3 WNW 9 17 5 9 1013.7 - 0.0
20/09:30am 15.3 13.6 11.2 76 2.2 NW 11 17 6 9 1013.9 - 0.0
20/09:00am 13.9 12.1 10.7 81 1.7 WNW 11 17 6 9 1014.0 1013.8 0.0
20/08:30am 13.6 11.6 10.2 80 1.8 NW 11 15 6 8 1014.0 - 0.0
20/08:00am 12.3 11.7 8.9 80 1.7 N 2 7 1 4 1014.0 - 0.0
20/07:30am 12.4 10.8 8.8 79 1.8 N 7 9 4 5 1013.8 - 0.0
20/07:00am 11.9 11.5 8.3 78 1.8 CALM 0 0 0 0 1013.6 - 0.0
20/06:30am 11.7 10.9 8.1 78 1.8 N 2 6 1 3 1013.5 - 0.0
20/06:00am 11.4 10.9 7.7 78 1.8 CALM 0 0 0 0 1013.5 1013.3 0.0
20/05:30am 11.3 10.3 7.4 77 1.9 W 2 9 1 5 1013.5 - 0.0
20/05:00am 11.2 9.4 7.1 76 2.0 W 6 11 3 6 1013.2 - 0.0
20/04:30am 11.0 8.7 5.6 69 2.5 WNW 7 13 4 7 1013.2 - 0.0
20/04:00am 10.9 7.7 5.3 68 2.6 W 11 15 6 8 1013.2 - 0.0
20/03:30am 10.8 7.1 4.7 66 2.8 WNW 13 19 7 10 1013.2 - 0.0
20/03:00am 10.9 7.3 4.8 66 2.8 WNW 13 17 7 9 1013.3 1013.1 0.0
20/02:30am 10.8 7.1 4.4 64 2.9 W 13 19 7 10 1013.3 - 0.0
20/02:00am 10.0 7.7 4.7 69 2.4 WSW 6 13 3 7 1013.6 - 0.0
20/01:30am 10.4 8.4 4.4 66 2.7 WNW 4 6 2 3 1014.1 - 0.0
20/01:00am 10.7 8.1 4.3 64 2.9 NW 7 11 4 6 1014.2 - 0.0
20/12:30am 11.1 8.1 4.3 63 3.1 W 9 13 5 7 1014.1 - 0.0
20/12:00am 11.5 7.7 3.7 58 3.5 WNW 13 20 7 11 1014.3 1014.1 0.0
 
Date/Time
EDT
Temp
°C
App
Temp
°C
Dew
Point
Rel
Hum
%
Delta-T
°C
Wind Press
QNH
hPa
Press
MSL
hPa
Rain
since 9 am
mm
Dir
 
Spd
km/h
Gust
km/h
Spd
kts
Gust
kts
19/11:30pm 11.5 8.9 4.2 61 3.3 NW 7 11 4 6 1014.4 - 0.0
19/11:00pm 12.2 9.7 4.6 59 3.5 WNW 7 9 4 5 1014.6 - 0.0
19/10:30pm 12.9 9.4 3.6 53 4.2 WNW 11 17 6 9 1014.5 - 0.0
19/10:00pm 13.6 9.2 2.9 48 4.8 WNW 15 20 8 11 1014.5 - 0.0
19/09:30pm 14.0 9.9 2.3 45 5.2 W 13 20 7 11 1014.2 - 0.0
19/09:00pm 14.5 10.7 1.5 41 5.7 W 11 19 6 10 1014.1 1013.9 0.0
19/08:30pm 14.6 10.8 1.7 41 5.7 W 11 19 6 10 1013.8 - 0.0
19/08:00pm 15.2 10.7 2.0 41 5.9 W 15 26 8 14 1013.4 - 0.0
19/07:30pm 16.7 11.8 2.2 37 6.6 W 17 32 9 17 1012.9 - 0.0
19/07:00pm 16.8 12.3 4.4 43 5.9 NW 17 30 9 16 1012.4 - 0.0
19/06:30pm 16.9 11.7 3.7 41 6.2 WNW 20 32 11 17 1012.3 - 0.0
19/06:00pm 17.6 12.4 3.6 39 6.6 W 20 32 11 17 1012.2 1012.0 0.0
19/05:30pm 16.5 10.9 3.7 42 6.0 WNW 22 35 12 19 1011.9 - 0.0
19/05:00pm 17.5 11.7 4.6 42 6.2 WNW 24 41 13 22 1011.8 - 0.0
19/04:30pm 18.9 14.2 5.0 40 6.8 W 19 30 10 16 1011.8 - 0.0
19/04:00pm 17.6 12.6 4.5 42 6.3 W 20 33 11 18 1011.8 - 0.0
19/03:30pm 18.6 14.5 4.6 39 6.8 W 15 32 8 17 1011.7 - 0.0
19/03:00pm 17.8 13.9 3.3 38 6.8 W 13 26 7 14 1011.9 1011.7 0.0
19/02:30pm 18.9 14.7 3.8 36 7.2 W 15 28 8 15 1011.7 - 0.0
19/02:00pm 17.3 13.6 2.2 36 6.9 W 11 22 6 12 1011.8 - 0.0
19/01:30pm 16.8 12.9 3.3 40 6.3 W 13 26 7 14 1011.9 - 0.0
19/01:00pm 17.6 14.0 3.0 37 6.8 NW 11 20 6 11 1011.8 - 0.0
19/12:30pm 16.1 12.8 2.5 40 6.2 WNW 9 15 5 8 1011.7 - 0.0
19/12:00pm 15.7 12.2 3.4 43 5.7 WNW 11 17 6 9 1011.8 1011.6 0.0
19/11:30am 16.8 14.2 4.4 43 5.9 WNW 7 15 4 8 1011.8 - 0.0
19/11:00am 15.8 13.1 3.5 43 5.7 SSW 7 13 4 7 1011.8 - 0.0
19/10:30am 15.5 12.0 3.4 44 5.6 SSW 11 17 6 9 1012.0 - 0.0
19/10:00am 15.1 11.4 4.7 50 4.9 SW 13 22 7 12 1012.0 - 0.0
19/09:30am 14.3 9.7 3.6 48 4.9 SW 17 20 9 11 1012.0 - 0.0
19/09:00am 13.8 9.4 2.9 47 4.9 SW 15 24 8 13 1011.8 1011.6 2.6
19/08:30am 12.9 8.8 4.2 55 4.0 SW 15 20 8 11 1011.7 - 2.6
19/08:00am 11.3 8.2 5.5 67 2.7 WSW 11 17 6 9 1011.2 - 2.6
19/07:30am 9.8 7.3 4.7 70 2.3 SW 7 9 4 5 1011.0 - 2.6
19/07:00am 8.5 5.7 5.2 80 1.5 S 9 11 5 6 1010.6 - 2.6
19/06:30am 7.2 4.0 5.2 87 0.9 SSE 11 13 6 7 1010.3 - 2.6
19/06:00am 4.6 2.0 3.4 92 0.5 SSE 6 9 3 5 1010.0 1009.8 2.6
19/05:30am 4.5 1.9 3.1 91 0.6 E 6 11 3 6 1009.5 - 2.6
19/05:00am 6.8 3.7 3.5 79 1.4 SSW 9 13 5 7 1009.0 - 2.6
19/04:30am 6.2 3.6 4.1 86 0.9 WSW 7 9 4 5 1008.6 - 2.6
19/04:00am 6.9 4.0 4.6 85 1.0 S 9 15 5 8 1008.6 - 2.6
19/03:30am 5.3 2.9 4.1 92 0.5 ESE 6 9 3 5 1008.2 - 2.6
19/03:00am 5.3 4.0 4.1 92 0.5 CALM 0 6 0 3 1008.0 1007.7 2.6
19/02:30am 5.0 3.7 4.1 94 0.4 CALM 0 0 0 0 1007.8 - 2.6
19/02:00am 6.8 5.1 5.7 93 0.5 W 4 7 2 4 1007.8 - 2.6
19/01:30am 5.9 4.8 5.0 94 0.4 CALM 0 0 0 0 1007.8 - 2.6
19/01:00am 8.1 6.6 6.6 90 0.7 SW 4 6 2 3 1007.6 - 2.6
19/12:30am 7.7 6.9 6.4 91 0.6 CALM 0 4 0 2 1007.5 - 2.6
19/12:00am 9.6 7.3 7.5 87 1.0 WNW 9 11 5 6 1007.1 1006.9 2.6
 
Date/Time
EDT
Temp
°C
App
Temp
°C
Dew
Point
Rel
Hum
%
Delta-T
°C
Wind Press
QNH
hPa
Press
MSL
hPa
Rain
since 9 am
mm
Dir
 
Spd
km/h
Gust
km/h
Spd
kts
Gust
kts
18/11:30pm 9.9 8.0 7.4 84 1.2 NW 7 9 4 5 1007.0 - 2.6
18/11:00pm 9.8 8.4 7.1 83 1.3 S 4 11 2 6 1006.5 - 2.6
18/10:30pm 10.8 8.6 7.7 81 1.5 W 9 15 5 8 1006.1 - 2.6
18/10:00pm 10.9 8.6 9.1 89 0.9 W 11 15 6 8 1006.1 - 2.6
18/09:30pm 11.2 9.7 9.0 86 1.1 W 7 11 4 6 1005.9 - 2.6
18/09:00pm 11.9 9.2 9.1 83 1.4 WNW 13 19 7 10 1005.6 1005.4 2.6
18/08:30pm 12.6 9.5 8.9 78 1.9 WNW 15 26 8 14 1005.4 - 2.6
18/08:00pm 12.9 9.7 8.6 75 2.2 WNW 15 20 8 11 1005.1 - 2.6
18/07:30pm 13.4 10.1 8.2 71 2.6 WNW 15 22 8 12 1004.7 - 2.6
18/07:00pm 13.9 10.6 7.9 67 3.0 WNW 15 24 8 13 1004.0 - 2.6
18/06:30pm 12.9 10.4 8.3 73 2.3 W 11 20 6 11 1003.7 - 2.6
18/06:00pm 13.3 11.3 8.8 74 2.3 W 9 15 5 8 1003.3 1003.0 2.6
18/05:30pm 12.8 9.2 8.2 73 2.3 W 17 30 9 16 1003.6 - 2.2
18/05:00pm 13.7 8.8 9.9 78 2.0 W 26 43 14 23 1003.4 - 2.2
18/04:30pm 12.9 9.5 11.4 91 0.8 WNW 20 33 11 18 1003.1 - 2.0
18/04:21pm 12.8 7.0 10.7 87 1.1 W 32 50 17 27 1003.1 - 1.8
18/04:00pm 16.6 12.3 10.9 69 3.1 NW 24 37 13 20 1002.4 - 0.0
18/03:30pm 16.9 13.8 10.4 65 3.5 WNW 17 28 9 15 1002.4 - 0.0
18/03:00pm 16.8 13.2 11.7 72 2.8 N 22 32 12 17 1002.4 1002.1 0.0
18/02:30pm 17.2 13.4 11.0 67 3.4 N 22 33 12 18 1002.5 - 0.0

Other Formats:

Comma delimited format used in spreadsheet applications
http://www.bom.gov.au/fwo/IDT60801/IDT60801.94972.axf

JavaScript Object Notation format (JSON) in row-major order
http://www.bom.gov.au/fwo/IDT60801/IDT60801.94972.json